Data for 10/03/2014

Time Sea-Level Adjusted Pressure Absolute Pressure Temperature Relative Humidity Dew Point   
(mb) (inHg) (mb) (inHg) (C) (F) (%) (C) (F)
00:05 1029 30.39 859 25.37 -0.1 31.8 63 -6.2 20.8
00:10 1029 30.39 859 25.37 0.1 32.2 66 -5.4 22.2
00:15 1029 30.39 859 25.37 -0 31.9 69 -5.1 22.7
00:20 1029 30.39 859 25.37 -0.2 31.6 70 -5 23
00:25 1029 30.39 859 25.37 -0.3 31.4 68 -5.6 22
00:30 1029 30.39 859 25.37 -0.2 31.6 70 -5.1 22.9
00:35 1029 30.39 859 25.37 -0.4 31.3 72 -4.9 23.3
00:40 1029 30.39 859 25.37 -0.5 31.2 72 -5 23.1
00:45 1029 30.39 859 25.37 -0.5 31.1 72 -4.9 23.2
00:50 1029 30.39 859 25.37 -0.5 31.1 71 -5.2 22.7
00:55 1030 30.42 859 25.37 -0.5 31.1 71 -5.2 22.7
01:00 1029 30.39 859 25.37 -0.5 31.2 71 -5 23
01:05 1029 30.39 859 25.37 -0.6 30.9 72 -5 23
01:10 1029 30.39 859 25.37 -0.9 30.4 75 -4.8 23.4
01:15 1029 30.39 859 25.37 -1.1 29.9 77 -4.7 23.5
01:20 1030 30.42 859 25.37 -1.3 29.7 77 -4.9 23.3
01:25 1030 30.42 859 25.37 -1.2 29.8 77 -4.8 23.3
01:30 1030 30.42 859 25.37 -1.2 29.8 76 -4.8 23.3
01:35 1030 30.42 859 25.37 -1.2 29.8 77 -4.8 23.4
01:40 1030 30.42 859 25.37 -1.3 29.6 78 -4.8 23.4
01:45 1030 30.42 859 25.37 -1.5 29.3 78 -4.8 23.4
01:50 1030 30.42 859 25.37 -1.6 29.1 81 -4.5 23.9
01:55 1030 30.42 859 25.37 -1.8 28.8 80 -4.9 23.3
02:00 1030 30.42 859 25.37 -1.7 28.9 79 -4.9 23.1
02:05 1030 30.42 859 25.37 -1.7 29 79 -4.9 23.2
02:10 1030 30.42 859 25.37 -1.7 29 80 -4.8 23.4
02:15 1029 30.39 859 25.37 -1.7 28.9 80 -4.8 23.4
02:20 1029 30.39 859 25.37 -1.7 29 80 -4.7 23.5
02:25 1029 30.39 859 25.37 -1.7 28.9 80 -4.7 23.6
02:30 1029 30.39 859 25.37 -1.8 28.8 81 -4.7 23.5
02:35 1029 30.39 859 25.37 -1.9 28.5 81 -4.7 23.5
02:40 1029 30.39 859 25.37 -2.1 28.2 81 -4.9 23.2
02:45 1029 30.39 859 25.37 -2.1 28.2 81 -5 23
02:50 1029 30.39 859 25.37 -2.1 28.2 81 -5 23.1
02:55 1029 30.39 859 25.37 -2 28.4 80 -5 23
03:00 1029 30.39 859 25.37 -2 28.4 80 -5 23.1
03:05 1029 30.39 858 25.34 -2.2 28.1 81 -5 22.9
03:10 1029 30.39 858 25.34 -2.2 28 81 -5 23
03:15 1029 30.39 859 25.37 -2.2 28 82 -4.9 23.1
03:20 1029 30.39 859 25.37 -2.2 28.1 82 -4.8 23.3
03:25 1029 30.39 859 25.37 -2.2 28.1 82 -4.8 23.3
03:30 1029 30.39 858 25.34 -2.2 28.1 82 -4.8 23.3
03:35 1029 30.39 858 25.34 -2.3 27.9 83 -4.8 23.4
03:40 1029 30.39 858 25.34 -2.4 27.7 83 -4.9 23.2
03:45 1029 30.39 858 25.34 -2.3 27.8 82 -4.9 23.1
03:50 1029 30.39 858 25.34 -2.3 27.9 82 -4.9 23.1
03:55 1029 30.39 859 25.37 -2.4 27.8 82 -5 23
04:00 1029 30.39 859 25.37 -2.4 27.6 82 -5.1 22.9
04:05 1029 30.39 859 25.37 -2.5 27.5 82 -5.2 22.7
04:10 1029 30.39 859 25.37 -2.5 27.5 82 -5.2 22.7
04:15 1029 30.39 859 25.37 -2.5 27.5 82 -5.2 22.6
04:20 1029 30.39 859 25.37 -2.5 27.5 82 -5.2 22.6
04:25 1029 30.39 859 25.37 -2.5 27.4 82 -5.2 22.6
04:30 1029 30.39 859 25.37 -2.8 26.9 83 -5.3 22.5
04:35 1029 30.39 859 25.37 -2.9 26.7 83 -5.4 22.3
04:40 1029 30.39 859 25.37 -3 26.7 83 -5.4 22.3
04:45 1029 30.39 859 25.37 -3 26.6 84 -5.4 22.2
04:50 1029 30.39 859 25.37 -3 26.5 84 -5.4 22.2
04:55 1029 30.39 859 25.37 -3 26.7 84 -5.4 22.3
05:00 1029 30.39 859 25.37 -2.7 27.1 83 -5.2 22.6
05:05 1030 30.42 859 25.37 -2.7 27.2 82 -5.3 22.5
05:10 1030 30.42 859 25.37 -2.7 27.2 82 -5.4 22.4
05:15 1030 30.42 859 25.37 -2.6 27.3 82 -5.3 22.4
05:20 1030 30.42 859 25.37 -2.6 27.4 81 -5.4 22.3
05:25 1030 30.42 859 25.37 -2.6 27.3 81 -5.4 22.3
05:30 1030 30.42 859 25.37 -2.7 27.1 82 -5.4 22.3
05:35 1030 30.42 859 25.37 -2.9 26.8 82 -5.6 22
05:40 1030 30.42 859 25.37 -3.4 26 84 -5.7 21.8
05:45 1030 30.42 859 25.37 -3.2 26.2 83 -5.8 21.6
05:50 1030 30.42 859 25.37 -3 26.6 80 -5.9 21.4
05:55 1030 30.42 859 25.37 -2.7 27.2 79 -5.8 21.5
06:00 1030 30.42 859 25.37 -2.8 26.9 80 -5.8 21.5
06:05 1030 30.42 859 25.37 -3 26.6 81 -5.8 21.6
06:10 1030 30.42 859 25.37 -3 26.6 81 -5.9 21.4
06:15 1030 30.42 859 25.37 -3.4 25.8 83 -5.9 21.3
06:20 1030 30.42 859 25.37 -3.7 25.3 84 -6.1 21.1
06:25 1030 30.42 859 25.37 -3.7 25.4 84 -5.9 21.3
06:30 1030 30.42 859 25.37 -3.2 26.2 82 -5.8 21.5
06:35 1030 30.42 859 25.37 -3.1 26.4 82 -5.8 21.6
06:40 1030 30.42 859 25.37 -3.2 26.3 82 -5.8 21.6
06:45 1030 30.42 859 25.37 -2.8 27 79 -5.9 21.5
06:50 1030 30.42 859 25.37 -2.1 28.2 77 -5.7 21.7
06:55 1030 30.42 859 25.37 -1.9 28.5 75 -5.8 21.6
07:00 1030 30.42 859 25.37 -2.1 28.2 76 -5.7 21.7
07:05 1030 30.42 859 25.37 -2.4 27.8 77 -5.8 21.5
07:10 1030 30.42 859 25.37 -2.2 28.1 76 -5.9 21.4
07:15 1030 30.42 859 25.37 -1.9 28.6 74 -5.9 21.4
07:20 1030 30.42 859 25.37 -1.4 29.4 72 -5.8 21.6
07:25 1030 30.42 859 25.37 -0.8 30.5 70 -5.5 22
07:30 1030 30.42 859 25.37 -0.5 31 69 -5.6 21.9
07:35 1030 30.42 859 25.37 -0.4 31.4 68 -5.6 21.9
07:40 1030 30.42 859 25.37 -0.4 31.2 69 -5.5 22.1
07:45 1030 30.42 859 25.37 -0.3 31.4 68 -5.5 22
07:50 1030 30.42 859 25.37 0.2 32.4 65 -5.6 21.9
07:55 1030 30.42 859 25.37 0.8 33.4 64 -5.2 22.6
08:00 1030 30.42 859 25.37 1.4 34.5 62 -5.1 22.8
08:05 1030 30.42 860 25.4 2.1 35.8 59 -5 22.9
08:10 1030 30.42 859 25.37 2.5 36.6 55 -5.7 21.8
08:15 1030 30.42 859 25.37 2.6 36.7 56 -5.2 22.6
08:20 1030 30.42 859 25.37 2.8 37 56 -5.2 22.7
08:25 1030 30.42 859 25.37 3 37.4 56 -5 23
08:30 1030 30.42 859 25.37 3.4 38.1 55 -4.9 23.2
08:35 1030 30.42 859 25.37 3.5 38.4 56 -4.4 24
08:40 1030 30.42 859 25.37 3.3 38 57 -4.3 24.2
08:45 1030 30.42 859 25.37 3.4 38.1 56 -4.7 23.6
08:50 1030 30.42 859 25.37 3.8 38.8 55 -4.5 23.8
08:55 1030 30.42 859 25.37 4.2 39.6 54 -4.2 24.5
09:00 1030 30.42 859 25.37 3.8 38.9 56 -4.3 24.3
09:05 1030 30.42 859 25.37 4.1 39.3 53 -4.6 23.7
09:10 1030 30.42 859 25.37 4.4 40 53 -4.3 24.2
09:15 1030 30.42 859 25.37 5 40.9 51 -4.5 24
09:20 1030 30.42 859 25.37 5 41 51 -4.3 24.2
09:25 1030 30.42 859 25.37 4.2 39.5 52 -4.8 23.4
09:30 1030 30.42 859 25.37 4 39.2 53 -4.7 23.5
09:35 1030 30.42 859 25.37 4.5 40.1 51 -4.8 23.4
09:40 1030 30.42 859 25.37 5.2 41.3 49 -4.5 23.8
09:45 1030 30.42 859 25.37 4.7 40.5 51 -4.7 23.6
09:50 1030 30.42 859 25.37 5 40.9 50 -4.6 23.6
09:55 1030 30.42 859 25.37 5.9 42.6 47 -4.6 23.8
10:00 1030 30.42 859 25.37 6.5 43.7 46 -4.4 24.1
10:05 1030 30.42 859 25.37 6.8 44.3 43 -4.7 23.5
10:10 1030 30.42 859 25.37 6.8 44.2 45 -4.3 24.2
10:15 1029 30.39 859 25.37 7.1 44.9 43 -4.7 23.6
10:20 1029 30.39 859 25.37 7 44.6 44 -4.3 24.3
10:25 1029 30.39 859 25.37 7.1 44.8 46 -3.6 25.5
10:30 1029 30.39 859 25.37 6.6 43.9 45 -4.5 23.9
10:35 1029 30.39 859 25.37 7.2 45 46 -3.6 25.6
10:40 1029 30.39 858 25.34 5.8 42.4 49 -4.2 24.5
10:45 1029 30.39 858 25.34 7.1 44.8 43 -4.5 24
10:50 1029 30.39 858 25.34 8.3 46.9 42 -3.8 25.1
10:55 1029 30.39 858 25.34 8.3 46.9 44 -3.4 26
11:00 1029 30.39 858 25.34 8.4 47 44 -3.2 26.2
11:05 1029 30.39 858 25.34 7.6 45.6 46 -3.3 26.1
11:10 1029 30.39 858 25.34 7 44.5 45 -4.1 24.6
11:15 1029 30.39 858 25.34 7.9 46.3 41 -4.6 23.7
11:20 1029 30.39 858 25.34 8.9 48 41 -3.7 25.3
11:25 1029 30.39 858 25.34 8.7 47.7 41 -3.6 25.5
11:30 1029 30.39 858 25.34 9.4 49 39 -3.7 25.4
11:35 1029 30.39 858 25.34 9.4 48.9 38 -4.3 24.2
11:40 1029 30.39 858 25.34 8.7 47.7 40 -4 24.7
11:45 1029 30.39 858 25.34 9.9 49.9 39 -3.3 26
11:50 1029 30.39 858 25.34 9.9 49.8 39 -3.4 26
11:55 1029 30.39 858 25.34 10.6 51.1 35 -4.2 24.5
12:00 1029 30.39 858 25.34 11.4 52.5 33 -4.1 24.5
12:05 1029 30.39 858 25.34 11.5 52.7 34 -3.8 25.2
12:10 1029 30.39 858 25.34 11.5 52.6 35 -3.4 25.9
12:15 1029 30.39 858 25.34 11.7 53 32 -4.3 24.3
12:20 1029 30.39 858 25.34 11.5 52.7 33 -4.1 24.6
12:25 1029 30.39 858 25.34 11.5 52.6 33 -4.3 24.3
12:30 1029 30.39 858 25.34 11.6 52.9 32 -4.4 24.1
12:35 1029 30.39 858 25.34 11.4 52.5 32 -4.5 24
12:40 1028 30.36 858 25.34 12.2 54 29 -5.4 22.4
12:45 1028 30.36 858 25.34 12 53.6 28 -5.7 21.8
12:50 1028 30.36 858 25.34 12.7 54.8 28 -5.3 22.5
12:55 1028 30.36 858 25.34 13.1 55.6 26 -5.9 21.3
13:00 1028 30.36 858 25.34 13.1 55.6 26 -6.1 21
13:05 1028 30.36 857 25.31 13.6 56.4 24 -6.5 20.3
13:10 1028 30.36 857 25.31 13.7 56.6 24 -6.3 20.7
13:15 1028 30.36 857 25.31 13.1 55.5 26 -5.8 21.5
13:20 1028 30.36 857 25.31 13.5 56.3 24 -6.7 20
13:25 1028 30.36 857 25.31 13.7 56.6 24 -6.7 20
13:30 1028 30.36 857 25.31 13.7 56.6 23 -7.2 19
13:35 1028 30.36 857 25.31 13.8 56.8 22 -7.5 18.4
13:40 1028 30.36 857 25.31 14.5 58 22 -7 19.5
13:45 1028 30.36 857 25.31 14.7 58.4 20 -7.7 18.1
13:50 1028 30.36 857 25.31 14.8 58.7 20 -8 17.7
13:55 1028 30.36 857 25.31 14.7 58.5 20 -8.2 17.3
14:00 1028 30.36 857 25.31 14.8 58.6 19 -8.9 16.1
14:05 1028 30.36 857 25.31 15.1 59.2 19 -8.2 17.2
14:10 1028 30.36 857 25.31 15.2 59.4 21 -7.2 19.1
14:15 1028 30.36 857 25.31 14.9 58.7 22 -6.9 19.6
14:20 1028 30.36 857 25.31 14.9 58.9 20 -8 17.5
14:25 1028 30.36 857 25.31 15.2 59.4 19 -8.5 16.7
14:30 1028 30.36 857 25.31 15.5 59.9 19 -7.8 17.9
14:35 1028 30.36 857 25.31 15.1 59.2 19 -8.3 17.1
14:40 1027 30.33 857 25.31 15.2 59.3 18 -8.6 16.5
14:45 1027 30.33 856 25.28 14.7 58.5 19 -8.4 16.8
14:50 1027 30.33 856 25.28 15 58.9 20 -8 17.6
14:55 1027 30.33 856 25.28 15.4 59.7 18 -8.4 16.9
15:00 1027 30.33 856 25.28 14.5 58.2 21 -7.4 18.6
15:05 1027 30.33 856 25.28 14.4 58 21 -7.6 18.3
15:10 1027 30.33 856 25.28 14.4 57.9 20 -8.3 17
15:15 1027 30.33 856 25.28 15.1 59.1 19 -8.6 16.6
15:20 1027 30.33 856 25.28 14.6 58.3 18 -9.1 15.7
15:25 1027 30.33 856 25.28 14.4 57.9 18 -9.6 14.6
15:30 1027 30.33 856 25.28 14.8 58.7 18 -9.6 14.8
15:35 1027 30.33 856 25.28 15.1 59.2 15 -11.1 12
15:40 1027 30.33 856 25.28 15.1 59.2 15 -11.1 12.1
15:45 1027 30.33 856 25.28 15.9 60.7 15 -10.6 12.9
15:50 1027 30.33 856 25.28 16.1 60.9 14 -11.1 12.1
15:55 1026 30.3 856 25.28 15.5 59.9 16 -10.3 13.5
16:00 1026 30.3 856 25.28 14.6 58.3 15 -11.5 11.3
16:05 1026 30.3 856 25.28 15.1 59.2 14 -12.5 9.6
16:10 1027 30.33 856 25.28 15 59.1 14 -12.7 9.2
16:15 1027 30.33 856 25.28 15.2 59.4 14 -12.3 9.8
16:20 1027 30.33 856 25.28 15.7 60.2 13 -12.2 10
16:25 1026 30.3 856 25.28 15.2 59.3 14 -11.9 10.6
16:30 1027 30.33 856 25.28 15.6 60.1 14 -12.2 10.1
16:35 1027 30.33 856 25.28 15.9 60.5 14 -11.3 11.6
16:40 1027 30.33 856 25.28 16.1 60.9 13 -12.1 10.1
16:45 1027 30.33 856 25.28 16.1 61 14 -11.7 10.9
16:50 1026 30.3 856 25.28 16.1 61 13 -11.9 10.5
16:55 1026 30.3 856 25.28 16 60.8 14 -11.7 10.9
17:00 1026 30.3 856 25.28 16 60.8 14 -11.9 10.6
17:05 1026 30.3 855 25.25 15.8 60.4 13 -12.1 10.2
17:10 1026 30.3 855 25.25 15.8 60.4 14 -11.7 10.9
17:15 1026 30.3 855 25.25 15.6 60.1 13 -12.3 9.9
17:20 1026 30.3 855 25.25 15.7 60.2 13 -12.2 10
17:25 1026 30.3 855 25.25 15.5 59.9 15 -11.2 11.9
17:30 1026 30.3 855 25.25 14.9 58.7 17 -9.8 14.4
17:35 1026 30.3 855 25.25 14.2 57.5 19 -8.8 16.2
17:40 1026 30.3 855 25.25 13.4 56.2 20 -9.2 15.5
17:45 1026 30.3 855 25.25 13.2 55.7 21 -8.7 16.3
17:50 1026 30.3 855 25.25 13 55.3 21 -8.6 16.6
17:55 1026 30.3 855 25.25 12.8 55.1 25 -6.9 19.6
18:00 1026 30.3 855 25.25 12.2 54 31 -4.2 24.4
18:05 1026 30.3 855 25.25 11.6 52.8 32 -4.4 24
18:10 1026 30.3 855 25.25 11.3 52.4 35 -3.5 25.6
18:15 1026 30.3 855 25.25 10.6 51 38 -3 26.5
18:20 1026 30.3 855 25.25 10.2 50.4 39 -3 26.5
18:25 1026 30.3 855 25.25 9.8 49.6 40 -3 26.6
18:30 1026 30.3 855 25.25 9.2 48.5 42 -2.9 26.7
18:35 1026 30.3 855 25.25 8.8 47.9 44 -2.7 27.2
18:40 1026 30.3 855 25.25 8.6 47.6 44 -2.8 26.9
18:45 1026 30.3 855 25.25 8.5 47.3 44 -3.2 26.3
18:50 1026 30.3 855 25.25 8.4 47.2 44 -3.1 26.4
18:55 1026 30.3 855 25.25 8.3 47 45 -3 26.7
19:00 1026 30.3 855 25.25 8.2 46.8 44 -3.4 25.9
19:05 1026 30.3 855 25.25 8 46.4 45 -3.2 26.3
19:10 1026 30.3 855 25.25 7.9 46.2 45 -3.2 26.2
19:15 1026 30.3 855 25.25 7.8 46.1 46 -3.2 26.2
19:20 1026 30.3 855 25.25 7.8 46 45 -3.5 25.8
19:25 1026 30.3 855 25.25 7.9 46.2 44 -3.5 25.7
19:30 1026 30.3 855 25.25 7.8 46.1 45 -3.5 25.8
19:35 1026 30.3 855 25.25 7.8 46 45 -3.5 25.8
19:40 1026 30.3 855 25.25 7.6 45.6 45 -3.6 25.5
19:45 1026 30.3 855 25.25 7.3 45.2 46 -3.4 25.9
19:50 1026 30.3 855 25.25 7.2 44.9 47 -3.4 25.9
19:55 1026 30.3 855 25.25 7.1 44.7 47 -3.5 25.8
20:00 1026 30.3 855 25.25 6.8 44.3 49 -3.3 26.1
20:05 1026 30.3 855 25.25 6.6 43.8 49 -3.4 25.9
20:10 1026 30.3 855 25.25 6.5 43.7 50 -3.3 26.1
20:15 1026 30.3 855 25.25 6.6 43.8 49 -3.4 25.8
20:20 1026 30.3 855 25.25 6.6 43.9 49 -3.4 25.9
20:25 1026 30.3 855 25.25 6.8 44.2 48 -3.4 25.9
20:30 1026 30.3 855 25.25 6.7 44.1 48 -3.4 25.9
20:35 1026 30.3 855 25.25 6.6 44 48 -3.6 25.5
20:40 1026 30.3 855 25.25 6.6 43.9 48 -3.7 25.4
20:45 1026 30.3 855 25.25 6.5 43.6 48 -3.6 25.5
20:50 1026 30.3 855 25.25 6.3 43.4 49 -3.7 25.4
20:55 1026 30.3 855 25.25 6.2 43.1 50 -3.5 25.8
21:00 1025 30.27 855 25.25 6 42.8 50 -3.6 25.5
21:05 1025 30.27 855 25.25 6 42.8 50 -3.7 25.4
21:10 1025 30.27 854 25.22 6.2 43.1 48 -3.9 25
21:15 1025 30.27 854 25.22 6.4 43.5 47 -4.1 24.7
21:20 1025 30.27 854 25.22 6.7 44 47 -3.8 25.2
21:25 1025 30.27 854 25.22 6 42.8 50 -3.6 25.6
21:30 1025 30.27 854 25.22 5.7 42.2 48 -4.5 23.8
21:35 1025 30.27 854 25.22 6 42.8 47 -4.5 23.9
21:40 1025 30.27 854 25.22 6.2 43.1 44 -5.2 22.7
21:45 1025 30.27 855 25.25 6.4 43.5 42 -5.5 22.1
21:50 1025 30.27 855 25.25 6.4 43.5 38 -7 19.4
21:55 1025 30.27 855 25.25 6.5 43.7 42 -5.4 22.2
22:00 1025 30.27 854 25.22 6.1 42.9 41 -6.2 20.9
22:05 1025 30.27 855 25.25 6.3 43.3 40 -6.4 20.4
22:10 1025 30.27 854 25.22 6.5 43.8 37 -7 19.4
22:15 1025 30.27 854 25.22 6.8 44.3 42 -5.3 22.5
22:20 1025 30.27 854 25.22 7.1 44.7 44 -4.4 24
22:25 1025 30.27 854 25.22 6.8 44.2 44 -4.5 23.9
22:30 1025 30.27 854 25.22 6.6 43.9 46 -4.2 24.4
22:35 1025 30.27 854 25.22 6.3 43.3 46 -4.3 24.2
22:40 1025 30.27 854 25.22 6.1 43 47 -4.3 24.2
22:45 1025 30.27 854 25.22 6 42.7 48 -4.2 24.5
22:50 1025 30.27 854 25.22 5.5 41.9 51 -3.9 24.9
22:55 1025 30.27 854 25.22 5 41 55 -3.4 25.8
23:00 1025 30.27 854 25.22 4.7 40.5 53 -4 24.8
23:05 1025 30.27 854 25.22 5.1 41.1 51 -4.2 24.5
23:10 1025 30.27 854 25.22 5.2 41.4 52 -3.8 25.1
23:15 1025 30.27 854 25.22 5.4 41.7 49 -4.4 24.2
23:20 1025 30.27 854 25.22 5.7 42.3 49 -4.2 24.4
23:25 1025 30.27 854 25.22 6 42.7 47 -4.5 23.9
23:30 1025 30.27 854 25.22 6.2 43.2 46 -4.5 23.9
23:35 1025 30.27 854 25.22 6.4 43.4 47 -4 24.7
23:40 1025 30.27 854 25.22 5.9 42.5 50 -3.9 25
23:45 1025 30.27 854 25.22 5.5 41.8 50 -4 24.8
23:50 1025 30.27 854 25.22 5.3 41.5 51 -4.1 24.7
23:55 1025 30.27 854 25.22 5.2 41.4 51 -4.2 24.5
24:00 1025 30.27 854 25.22 5.3 41.5 51 -4.1 24.7